UAL1643 KORD-KMCO
Flight info
| Callsign | UAL1643 |
|---|---|
| Flight time | 2h 0m |
| Altitude | 37000 |
| Route | DENNT DARCY DREGS DUMGE SCOTO SWAPP Q79 THRSR ZJAYX GRNCH5 |
| Aircraft | B77W/H-SDE1E2E3FGHIJ2J3J4J5M1RWXY/LB1D1 |
Departure
| Time | 2026-04-21 13:30 |
|---|---|
| Airport | Chicago O'Hare International Airport (KORD) |
Arrival
| Time | 2026-04-21 15:31 |
|---|---|
| Airport | Orlando International Airport (KMCO) |
| Time | Latitude | Longitude | Altitude | Speed | Heading |
|---|---|---|---|---|---|
| 2026-04-21 13:10 | 41.97894 | -87.91116 | 674 ft | 0 kts | 100° |
| 2026-04-21 13:18 | 41.97895 | -87.91125 | 674 ft | 2 kts | 100° |
| 2026-04-21 13:18 | 41.97897 | -87.91147 | 672 ft | 2 kts | 103° |
| 2026-04-21 13:18 | 41.97899 | -87.91168 | 670 ft | 2 kts | 75° |
| 2026-04-21 13:19 | 41.97894 | -87.91185 | 668 ft | 2 kts | 36° |
| 2026-04-21 13:19 | 41.97888 | -87.91190 | 671 ft | 2 kts | 10° |
| 2026-04-21 13:19 | 41.97894 | -87.91189 | 668 ft | 0 kts | 10° |
| 2026-04-21 13:24 | 41.97897 | -87.91188 | 674 ft | 1 kts | 10° |
| 2026-04-21 13:24 | 41.97907 | -87.91186 | 674 ft | 3 kts | 6° |
| 2026-04-21 13:24 | 41.97941 | -87.91187 | 674 ft | 6 kts | 358° |
| 2026-04-21 13:24 | 41.97991 | -87.91189 | 674 ft | 8 kts | 358° |
| 2026-04-21 13:25 | 41.98051 | -87.91178 | 674 ft | 10 kts | 16° |
| 2026-04-21 13:25 | 41.98115 | -87.91135 | 674 ft | 11 kts | 34° |
| 2026-04-21 13:25 | 41.98173 | -87.91056 | 674 ft | 12 kts | 54° |
| 2026-04-21 13:25 | 41.98216 | -87.90958 | 674 ft | 12 kts | 62° |
| 2026-04-21 13:26 | 41.98253 | -87.90855 | 674 ft | 12 kts | 67° |
| 2026-04-21 13:26 | 41.98277 | -87.90746 | 673 ft | 12 kts | 79° |
| 2026-04-21 13:26 | 41.98286 | -87.90633 | 672 ft | 12 kts | 86° |
| 2026-04-21 13:26 | 41.98288 | -87.90519 | 673 ft | 12 kts | 89° |
| 2026-04-21 13:27 | 41.98288 | -87.90443 | 673 ft | 12 kts | 90° |
| 2026-04-21 13:27 | 41.98289 | -87.90292 | 674 ft | 12 kts | 90° |
| 2026-04-21 13:27 | 41.98289 | -87.90215 | 674 ft | 12 kts | 90° |
| 2026-04-21 13:27 | 41.98289 | -87.90064 | 674 ft | 12 kts | 90° |
| 2026-04-21 13:28 | 41.98290 | -87.89988 | 674 ft | 12 kts | 90° |
| 2026-04-21 13:28 | 41.98290 | -87.89873 | 675 ft | 12 kts | 89° |
| 2026-04-21 13:28 | 41.98290 | -87.89760 | 675 ft | 12 kts | 91° |
| 2026-04-21 13:28 | 41.98289 | -87.89676 | 675 ft | 5 kts | 91° |
| 2026-04-21 13:29 | 41.98304 | -87.89638 | 675 ft | 5 kts | 33° |
| 2026-04-21 13:29 | 41.98339 | -87.89640 | 676 ft | 5 kts | 340° |
| 2026-04-21 13:29 | 41.98374 | -87.89684 | 676 ft | 6 kts | 307° |
| 2026-04-21 13:29 | 41.98389 | -87.89757 | 676 ft | 21 kts | 271° |
| 2026-04-21 13:30 | 41.98386 | -87.90228 | 673 ft | 92 kts | 269° |
| 2026-04-21 13:30 | 41.98381 | -87.91453 | 676 ft | 167 kts | 268° |
| 2026-04-21 13:30 | 41.98403 | -87.93239 | 893 ft | 204 kts | 269° |
| 2026-04-21 13:30 | 41.98467 | -87.95205 | 1674 ft | 215 kts | 269° |
| 2026-04-21 13:31 | 41.98364 | -87.97035 | 3076 ft | 193 kts | 250° |
| 2026-04-21 13:31 | 41.97448 | -87.98478 | 3637 ft | 226 kts | 213° |
| 2026-04-21 13:31 | 41.95851 | -87.99008 | 4385 ft | 249 kts | 188° |
| 2026-04-21 13:31 | 41.94084 | -87.98759 | 5216 ft | 263 kts | 171° |
| 2026-04-21 13:32 | 41.92314 | -87.97978 | 6073 ft | 271 kts | 165° |
| 2026-04-21 13:32 | 41.90538 | -87.97052 | 6932 ft | 274 kts | 164° |
| 2026-04-21 13:32 | 41.88748 | -87.96096 | 7601 ft | 281 kts | 163° |
| 2026-04-21 13:32 | 41.86898 | -87.95116 | 8188 ft | 291 kts | 163° |
| 2026-04-21 13:33 | 41.84984 | -87.94115 | 8912 ft | 296 kts | 164° |
| 2026-04-21 13:33 | 41.83046 | -87.93112 | 9717 ft | 300 kts | 164° |
| 2026-04-21 13:33 | 41.81120 | -87.92122 | 10421 ft | 305 kts | 164° |
| 2026-04-21 13:33 | 41.79070 | -87.91084 | 10708 ft | 326 kts | 164° |
| 2026-04-21 13:34 | 41.76870 | -87.89979 | 10907 ft | 351 kts | 164° |
| 2026-04-21 13:34 | 41.74505 | -87.88794 | 11126 ft | 373 kts | 163° |
| 2026-04-21 13:34 | 41.72038 | -87.87552 | 11705 ft | 383 kts | 163° |
| 2026-04-21 13:34 | 41.69502 | -87.86275 | 12441 ft | 389 kts | 163° |
| 2026-04-21 13:35 | 41.66948 | -87.84990 | 13296 ft | 392 kts | 163° |
| 2026-04-21 13:35 | 41.64390 | -87.83707 | 14113 ft | 395 kts | 163° |
| 2026-04-21 13:35 | 41.61790 | -87.82406 | 14784 ft | 401 kts | 163° |
| 2026-04-21 13:35 | 41.59151 | -87.81089 | 15418 ft | 408 kts | 163° |
| 2026-04-21 13:36 | 41.56509 | -87.79772 | 16086 ft | 414 kts | 163° |
| 2026-04-21 13:36 | 41.53771 | -87.78406 | 16755 ft | 420 kts | 163° |
| 2026-04-21 13:36 | 41.51015 | -87.77033 | 17425 ft | 427 kts | 163° |
| 2026-04-21 13:36 | 41.48206 | -87.75635 | 18094 ft | 433 kts | 163° |
| 2026-04-21 13:37 | 41.45366 | -87.74244 | 18702 ft | 438 kts | 165° |
| 2026-04-21 13:37 | 41.42407 | -87.73191 | 19298 ft | 439 kts | 173° |
| 2026-04-21 13:37 | 41.39379 | -87.72588 | 19956 ft | 440 kts | 179° |
| 2026-04-21 13:37 | 41.36320 | -87.72413 | 20613 ft | 440 kts | 185° |
| 2026-04-21 13:38 | 41.33281 | -87.72463 | 21234 ft | 444 kts | 186° |
| 2026-04-21 13:38 | 41.30177 | -87.72528 | 21870 ft | 449 kts | 186° |
| 2026-04-21 13:38 | 41.27032 | -87.72573 | 22494 ft | 453 kts | 186° |
| 2026-04-21 13:38 | 41.23863 | -87.72594 | 23119 ft | 458 kts | 185° |
| 2026-04-21 13:39 | 41.20664 | -87.72593 | 23716 ft | 463 kts | 184° |
| 2026-04-21 13:39 | 41.17417 | -87.72320 | 24223 ft | 471 kts | 180° |
| 2026-04-21 13:39 | 41.14147 | -87.71873 | 24763 ft | 474 kts | 179° |
| 2026-04-21 13:39 | 41.10853 | -87.71403 | 25304 ft | 477 kts | 179° |
| 2026-04-21 13:40 | 41.07548 | -87.70932 | 25820 ft | 480 kts | 179° |
| 2026-04-21 13:40 | 41.04207 | -87.70463 | 26312 ft | 483 kts | 179° |
| 2026-04-21 13:40 | 41.00846 | -87.70001 | 26799 ft | 487 kts | 179° |
| 2026-04-21 13:40 | 40.97458 | -87.69542 | 27273 ft | 491 kts | 179° |
| 2026-04-21 13:41 | 40.94051 | -87.69084 | 27756 ft | 494 kts | 180° |
| 2026-04-21 13:41 | 40.90626 | -87.68626 | 28225 ft | 497 kts | 180° |
| 2026-04-21 13:41 | 40.87163 | -87.68163 | 28678 ft | 500 kts | 179° |
| 2026-04-21 13:41 | 40.83727 | -87.67705 | 29124 ft | 504 kts | 179° |
| 2026-04-21 13:42 | 40.80236 | -87.67239 | 29537 ft | 507 kts | 180° |
| 2026-04-21 13:42 | 40.76713 | -87.66769 | 29943 ft | 510 kts | 180° |
| 2026-04-21 13:42 | 40.73166 | -87.66295 | 30398 ft | 510 kts | 180° |
| 2026-04-21 13:42 | 40.69630 | -87.65822 | 30899 ft | 509 kts | 180° |
| 2026-04-21 13:43 | 40.66116 | -87.65352 | 31414 ft | 506 kts | 180° |
| 2026-04-21 13:43 | 40.62653 | -87.64890 | 31905 ft | 505 kts | 180° |
| 2026-04-21 13:43 | 40.59155 | -87.64425 | 32372 ft | 504 kts | 180° |
| 2026-04-21 13:43 | 40.55660 | -87.63963 | 32816 ft | 504 kts | 180° |
| 2026-04-21 13:44 | 40.52181 | -87.63503 | 33259 ft | 503 kts | 180° |
| 2026-04-21 13:44 | 40.48689 | -87.63041 | 33715 ft | 502 kts | 180° |
| 2026-04-21 13:44 | 40.45218 | -87.62582 | 34165 ft | 501 kts | 180° |
| 2026-04-21 13:44 | 40.41785 | -87.62129 | 34534 ft | 500 kts | 180° |
| 2026-04-21 13:45 | 40.38329 | -87.61673 | 34896 ft | 499 kts | 180° |
| 2026-04-21 13:45 | 40.34874 | -87.61069 | 35250 ft | 502 kts | 174° |
| 2026-04-21 13:45 | 40.31465 | -87.59988 | 35606 ft | 506 kts | 168° |
| 2026-04-21 13:45 | 40.28114 | -87.58520 | 35955 ft | 509 kts | 163° |
| 2026-04-21 13:46 | 40.24859 | -87.56622 | 36274 ft | 512 kts | 158° |
| 2026-04-21 13:46 | 40.21661 | -87.54553 | 36591 ft | 512 kts | 158° |
| 2026-04-21 13:46 | 40.18470 | -87.52459 | 36901 ft | 512 kts | 158° |
| 2026-04-21 13:46 | 40.15324 | -87.50409 | 37127 ft | 513 kts | 158° |
| 2026-04-21 13:47 | 40.08878 | -87.46292 | 37175 ft | 516 kts | 158° |
| 2026-04-21 13:47 | 40.02440 | -87.42224 | 37172 ft | 509 kts | 159° |
| 2026-04-21 13:48 | 39.96073 | -87.38171 | 37185 ft | 508 kts | 158° |
| 2026-04-21 13:48 | 39.89820 | -87.33972 | 37199 ft | 508 kts | 156° |
| 2026-04-21 13:49 | 39.83541 | -87.29708 | 37205 ft | 509 kts | 157° |
| 2026-04-21 13:49 | 39.77235 | -87.25464 | 37209 ft | 510 kts | 157° |
| 2026-04-21 13:50 | 39.70920 | -87.21243 | 37215 ft | 511 kts | 157° |
| 2026-04-21 13:50 | 39.64586 | -87.17024 | 37217 ft | 512 kts | 157° |
| 2026-04-21 13:51 | 39.58273 | -87.12824 | 37223 ft | 513 kts | 157° |
| 2026-04-21 13:51 | 39.51920 | -87.08605 | 37220 ft | 513 kts | 157° |
| 2026-04-21 13:52 | 39.45547 | -87.04381 | 37221 ft | 514 kts | 157° |
| 2026-04-21 13:52 | 39.39170 | -87.00164 | 37224 ft | 514 kts | 157° |
| 2026-04-21 13:53 | 39.32800 | -86.95959 | 37227 ft | 514 kts | 157° |
| 2026-04-21 13:53 | 39.26456 | -86.91781 | 37231 ft | 514 kts | 157° |
| 2026-04-21 13:54 | 39.20079 | -86.87588 | 37237 ft | 513 kts | 157° |
| 2026-04-21 13:54 | 39.13725 | -86.83390 | 37233 ft | 513 kts | 156° |
| 2026-04-21 13:55 | 39.07434 | -86.79112 | 37237 ft | 514 kts | 156° |
| 2026-04-21 13:55 | 39.01118 | -86.74795 | 37241 ft | 513 kts | 156° |
| 2026-04-21 13:56 | 38.94795 | -86.70499 | 37237 ft | 514 kts | 156° |
| 2026-04-21 13:56 | 38.88491 | -86.66237 | 37265 ft | 514 kts | 156° |
| 2026-04-21 13:57 | 38.82151 | -86.61963 | 37249 ft | 514 kts | 156° |
| 2026-04-21 13:57 | 38.75805 | -86.57693 | 37255 ft | 515 kts | 156° |
| 2026-04-21 13:58 | 38.69461 | -86.53432 | 37261 ft | 515 kts | 156° |
| 2026-04-21 13:58 | 38.63103 | -86.49168 | 37269 ft | 515 kts | 156° |
| 2026-04-21 13:59 | 38.56788 | -86.44944 | 37268 ft | 515 kts | 156° |
| 2026-04-21 13:59 | 38.50419 | -86.40692 | 37273 ft | 516 kts | 156° |
| 2026-04-21 14:00 | 38.44059 | -86.36453 | 37271 ft | 516 kts | 156° |
| 2026-04-21 14:00 | 38.37670 | -86.32204 | 37282 ft | 516 kts | 156° |
| 2026-04-21 14:01 | 38.31289 | -86.27969 | 37280 ft | 517 kts | 156° |
| 2026-04-21 14:01 | 38.24940 | -86.23764 | 37297 ft | 517 kts | 156° |
| 2026-04-21 14:02 | 38.18559 | -86.19546 | 37297 ft | 517 kts | 157° |
| 2026-04-21 14:03 | 38.08969 | -86.13222 | 37293 ft | 518 kts | 157° |
| 2026-04-21 14:03 | 38.02553 | -86.09002 | 37294 ft | 518 kts | 157° |
| 2026-04-21 14:04 | 37.96145 | -86.04795 | 37306 ft | 518 kts | 157° |
| 2026-04-21 14:04 | 37.89774 | -86.00620 | 37301 ft | 519 kts | 157° |
| 2026-04-21 14:05 | 37.83341 | -85.96415 | 37286 ft | 519 kts | 157° |
| 2026-04-21 14:05 | 37.76953 | -85.92245 | 37313 ft | 519 kts | 157° |
| 2026-04-21 14:06 | 37.70529 | -85.88061 | 37309 ft | 519 kts | 157° |
| 2026-04-21 14:06 | 37.64094 | -85.83878 | 37312 ft | 519 kts | 157° |
| 2026-04-21 14:07 | 37.57668 | -85.79709 | 37314 ft | 519 kts | 157° |
| 2026-04-21 14:07 | 37.51268 | -85.75565 | 37314 ft | 520 kts | 157° |
| 2026-04-21 14:08 | 37.44825 | -85.71401 | 37316 ft | 520 kts | 157° |
| 2026-04-21 14:08 | 37.38386 | -85.67248 | 37340 ft | 520 kts | 157° |
| 2026-04-21 14:09 | 37.31935 | -85.63095 | 37347 ft | 520 kts | 157° |
| 2026-04-21 14:09 | 37.25489 | -85.58953 | 37354 ft | 520 kts | 157° |
| 2026-04-21 14:10 | 37.19038 | -85.54816 | 37355 ft | 520 kts | 157° |
| 2026-04-21 14:10 | 37.12631 | -85.50716 | 37353 ft | 520 kts | 157° |
| 2026-04-21 14:11 | 37.06180 | -85.46595 | 37367 ft | 520 kts | 157° |
| 2026-04-21 14:11 | 36.99724 | -85.42479 | 37358 ft | 521 kts | 157° |
| 2026-04-21 14:12 | 36.93257 | -85.38363 | 37348 ft | 521 kts | 157° |
| 2026-04-21 14:12 | 36.86786 | -85.34253 | 37358 ft | 521 kts | 157° |
| 2026-04-21 14:13 | 36.80362 | -85.30180 | 37351 ft | 521 kts | 157° |
| 2026-04-21 14:13 | 36.74946 | -85.26752 | 37357 ft | 521 kts | 157° |
| 2026-04-21 14:14 | 36.67426 | -85.22000 | 37358 ft | 521 kts | 158° |
| 2026-04-21 14:14 | 36.61968 | -85.18863 | 37344 ft | 516 kts | 165° |
| 2026-04-21 14:15 | 36.55133 | -85.16437 | 37349 ft | 507 kts | 174° |
| 2026-04-21 14:15 | 36.48195 | -85.14717 | 37343 ft | 507 kts | 174° |
| 2026-04-21 14:16 | 36.41271 | -85.12985 | 37349 ft | 507 kts | 174° |
| 2026-04-21 14:16 | 36.34387 | -85.11222 | 37352 ft | 508 kts | 174° |
| 2026-04-21 14:17 | 36.27432 | -85.09425 | 37355 ft | 508 kts | 174° |
| 2026-04-21 14:17 | 36.20550 | -85.07650 | 37355 ft | 508 kts | 174° |
| 2026-04-21 14:18 | 36.13630 | -85.05871 | 37366 ft | 508 kts | 174° |
| 2026-04-21 14:18 | 36.06699 | -85.04095 | 37376 ft | 508 kts | 174° |
| 2026-04-21 14:19 | 35.99806 | -85.02332 | 37377 ft | 508 kts | 174° |
| 2026-04-21 14:19 | 35.92868 | -85.00559 | 37373 ft | 509 kts | 174° |
| 2026-04-21 14:20 | 35.85907 | -84.98784 | 37369 ft | 509 kts | 174° |
| 2026-04-21 14:20 | 35.79006 | -84.97027 | 37365 ft | 509 kts | 174° |
| 2026-04-21 14:21 | 35.72057 | -84.95260 | 37366 ft | 508 kts | 174° |
| 2026-04-21 14:21 | 35.65161 | -84.93511 | 37369 ft | 509 kts | 174° |
| 2026-04-21 14:22 | 35.58214 | -84.91752 | 37375 ft | 509 kts | 174° |
| 2026-04-21 14:22 | 35.51272 | -84.89993 | 37373 ft | 509 kts | 174° |
| 2026-04-21 14:23 | 35.44320 | -84.88232 | 37381 ft | 509 kts | 174° |
| 2026-04-21 14:23 | 35.37377 | -84.86477 | 37365 ft | 509 kts | 174° |
| 2026-04-21 14:24 | 35.30488 | -84.84738 | 37358 ft | 509 kts | 174° |
| 2026-04-21 14:24 | 35.23551 | -84.82991 | 37368 ft | 508 kts | 174° |
| 2026-04-21 14:25 | 35.16614 | -84.81246 | 37366 ft | 508 kts | 174° |
| 2026-04-21 14:25 | 35.09690 | -84.79508 | 37363 ft | 508 kts | 174° |
| 2026-04-21 14:26 | 35.02807 | -84.77783 | 37366 ft | 508 kts | 174° |
| 2026-04-21 14:26 | 34.95874 | -84.76049 | 37368 ft | 508 kts | 174° |
| 2026-04-21 14:27 | 34.88937 | -84.74317 | 37382 ft | 508 kts | 174° |
| 2026-04-21 14:27 | 34.81993 | -84.72586 | 37390 ft | 509 kts | 174° |
| 2026-04-21 14:28 | 34.75045 | -84.70857 | 37400 ft | 509 kts | 174° |
| 2026-04-21 14:28 | 34.68099 | -84.69130 | 37392 ft | 509 kts | 174° |
| 2026-04-21 14:29 | 34.61189 | -84.67416 | 37388 ft | 509 kts | 174° |
| 2026-04-21 14:29 | 34.54242 | -84.65672 | 37375 ft | 509 kts | 173° |
| 2026-04-21 14:30 | 34.47304 | -84.63848 | 37390 ft | 509 kts | 173° |
| 2026-04-21 14:30 | 34.40372 | -84.62020 | 37396 ft | 509 kts | 173° |
| 2026-04-21 14:31 | 34.33471 | -84.60214 | 37398 ft | 509 kts | 173° |
| 2026-04-21 14:31 | 34.26586 | -84.58422 | 37399 ft | 508 kts | 173° |
| 2026-04-21 14:32 | 34.19669 | -84.56624 | 37397 ft | 508 kts | 173° |
| 2026-04-21 14:32 | 34.12737 | -84.54824 | 37389 ft | 508 kts | 173° |
| 2026-04-21 14:33 | 34.05808 | -84.53028 | 37393 ft | 508 kts | 173° |
| 2026-04-21 14:33 | 33.98923 | -84.51324 | 37399 ft | 507 kts | 175° |
| 2026-04-21 14:34 | 33.91978 | -84.49832 | 37353 ft | 506 kts | 175° |
| 2026-04-21 14:34 | 33.85021 | -84.48346 | 37359 ft | 507 kts | 175° |
| 2026-04-21 14:35 | 33.78127 | -84.46837 | 37379 ft | 507 kts | 175° |
| 2026-04-21 14:35 | 33.71170 | -84.45309 | 37386 ft | 507 kts | 175° |
| 2026-04-21 14:36 | 33.64238 | -84.43567 | 37377 ft | 512 kts | 168° |
| 2026-04-21 14:36 | 33.57582 | -84.40486 | 37378 ft | 519 kts | 158° |
| 2026-04-21 14:37 | 33.51125 | -84.36575 | 37414 ft | 520 kts | 157° |
| 2026-04-21 14:37 | 33.44664 | -84.32635 | 37421 ft | 520 kts | 157° |
| 2026-04-21 14:38 | 33.38175 | -84.28738 | 37422 ft | 520 kts | 157° |
| 2026-04-21 14:38 | 33.31722 | -84.24901 | 37419 ft | 521 kts | 158° |
| 2026-04-21 14:39 | 33.25228 | -84.21052 | 37407 ft | 521 kts | 158° |
| 2026-04-21 14:39 | 33.18719 | -84.17197 | 37394 ft | 521 kts | 158° |
| 2026-04-21 14:40 | 33.12213 | -84.13349 | 37388 ft | 522 kts | 158° |
| 2026-04-21 14:40 | 33.05746 | -84.09528 | 37397 ft | 522 kts | 158° |
| 2026-04-21 14:41 | 32.99216 | -84.05677 | 37393 ft | 522 kts | 158° |
| 2026-04-21 14:41 | 32.92705 | -84.01843 | 37393 ft | 522 kts | 158° |
| 2026-04-21 14:42 | 32.86224 | -83.98034 | 37378 ft | 522 kts | 158° |
| 2026-04-21 14:42 | 32.79705 | -83.94208 | 37363 ft | 522 kts | 158° |
| 2026-04-21 14:43 | 32.73181 | -83.90387 | 37368 ft | 522 kts | 158° |
| 2026-04-21 14:43 | 32.66662 | -83.86574 | 37369 ft | 522 kts | 158° |
| 2026-04-21 14:44 | 32.60180 | -83.82789 | 37393 ft | 522 kts | 158° |
| 2026-04-21 14:44 | 32.53655 | -83.78985 | 37397 ft | 521 kts | 158° |
| 2026-04-21 14:45 | 32.47129 | -83.75188 | 37393 ft | 521 kts | 158° |
| 2026-04-21 14:45 | 32.40654 | -83.71425 | 37391 ft | 522 kts | 158° |
| 2026-04-21 14:46 | 32.34119 | -83.67633 | 37386 ft | 522 kts | 158° |
| 2026-04-21 14:46 | 32.27590 | -83.63852 | 37374 ft | 522 kts | 158° |
| 2026-04-21 14:47 | 32.21103 | -83.60101 | 37371 ft | 522 kts | 158° |
| 2026-04-21 14:47 | 32.14562 | -83.56324 | 37377 ft | 522 kts | 158° |
| 2026-04-21 14:48 | 32.08031 | -83.52559 | 37369 ft | 522 kts | 158° |
| 2026-04-21 14:48 | 32.01488 | -83.48794 | 37366 ft | 522 kts | 158° |
| 2026-04-21 14:49 | 31.94945 | -83.45034 | 37366 ft | 522 kts | 158° |
| 2026-04-21 14:49 | 31.88448 | -83.41307 | 37358 ft | 522 kts | 158° |
| 2026-04-21 14:50 | 31.82971 | -83.38169 | 37363 ft | 522 kts | 158° |
| 2026-04-21 14:50 | 31.75370 | -83.33820 | 37366 ft | 522 kts | 159° |
| 2026-04-21 14:51 | 31.68826 | -83.30083 | 37363 ft | 522 kts | 159° |
| 2026-04-21 14:51 | 31.62336 | -83.26384 | 37366 ft | 521 kts | 159° |
| 2026-04-21 14:52 | 31.55792 | -83.22707 | 37358 ft | 521 kts | 159° |
| 2026-04-21 14:52 | 31.49242 | -83.19053 | 37359 ft | 520 kts | 159° |
| 2026-04-21 14:53 | 31.42701 | -83.15403 | 37346 ft | 520 kts | 159° |
| 2026-04-21 14:53 | 31.36198 | -83.11772 | 37362 ft | 520 kts | 159° |
| 2026-04-21 14:54 | 31.29650 | -83.08121 | 37340 ft | 520 kts | 159° |
| 2026-04-21 14:54 | 31.23110 | -83.04481 | 37342 ft | 520 kts | 159° |
| 2026-04-21 14:55 | 31.16557 | -83.00840 | 37351 ft | 521 kts | 159° |
| 2026-04-21 14:55 | 31.10046 | -82.97227 | 37354 ft | 521 kts | 159° |
| 2026-04-21 14:56 | 31.03488 | -82.93593 | 37354 ft | 521 kts | 159° |
| 2026-04-21 14:56 | 30.96937 | -82.89968 | 37358 ft | 521 kts | 159° |
| 2026-04-21 14:57 | 30.90392 | -82.86352 | 37358 ft | 521 kts | 159° |
| 2026-04-21 14:57 | 30.84257 | -82.81748 | 37373 ft | 529 kts | 145° |
| 2026-04-21 14:58 | 30.78573 | -82.76352 | 37379 ft | 530 kts | 144° |
| 2026-04-21 14:58 | 30.72847 | -82.70945 | 37400 ft | 529 kts | 145° |
| 2026-04-21 14:59 | 30.67042 | -82.65665 | 37417 ft | 529 kts | 146° |
| 2026-04-21 14:59 | 30.61241 | -82.60469 | 37426 ft | 529 kts | 146° |
| 2026-04-21 15:00 | 30.55390 | -82.55232 | 37430 ft | 529 kts | 146° |
| 2026-04-21 15:00 | 30.49561 | -82.50007 | 37429 ft | 529 kts | 146° |
| 2026-04-21 15:01 | 30.43761 | -82.44812 | 37416 ft | 529 kts | 146° |
| 2026-04-21 15:01 | 30.37926 | -82.39596 | 37407 ft | 529 kts | 146° |
| 2026-04-21 15:02 | 30.32086 | -82.34382 | 37404 ft | 529 kts | 146° |
| 2026-04-21 15:02 | 30.30151 | -82.32657 | 37132 ft | 532 kts | 146° |
| 2026-04-21 15:02 | 30.27233 | -82.30055 | 36853 ft | 524 kts | 146° |
| 2026-04-21 15:02 | 30.24358 | -82.27493 | 36337 ft | 520 kts | 146° |
| 2026-04-21 15:03 | 30.21460 | -82.24999 | 35667 ft | 517 kts | 151° |
| 2026-04-21 15:03 | 30.18260 | -82.23186 | 35063 ft | 506 kts | 167° |
| 2026-04-21 15:03 | 30.14863 | -82.22410 | 34582 ft | 492 kts | 176° |
| 2026-04-21 15:03 | 30.11479 | -82.21868 | 34053 ft | 489 kts | 176° |
| 2026-04-21 15:04 | 30.08119 | -82.21287 | 33534 ft | 486 kts | 175° |
| 2026-04-21 15:04 | 30.04835 | -82.20673 | 33046 ft | 482 kts | 175° |
| 2026-04-21 15:04 | 30.01527 | -82.20024 | 32562 ft | 478 kts | 174° |
| 2026-04-21 15:04 | 29.98250 | -82.19368 | 32100 ft | 474 kts | 174° |
| 2026-04-21 15:05 | 29.95015 | -82.18723 | 31644 ft | 470 kts | 174° |
| 2026-04-21 15:05 | 29.88627 | -82.17458 | 30747 ft | 462 kts | 174° |
| 2026-04-21 15:05 | 29.85504 | -82.16835 | 30299 ft | 458 kts | 174° |
| 2026-04-21 15:06 | 29.82377 | -82.16210 | 29792 ft | 454 kts | 174° |
| 2026-04-21 15:06 | 29.79269 | -82.15590 | 29293 ft | 450 kts | 174° |
| 2026-04-21 15:06 | 29.76188 | -82.14975 | 28782 ft | 447 kts | 174° |
| 2026-04-21 15:06 | 29.73131 | -82.14366 | 28295 ft | 444 kts | 174° |
| 2026-04-21 15:07 | 29.70092 | -82.13762 | 27818 ft | 441 kts | 174° |
| 2026-04-21 15:07 | 29.67078 | -82.13163 | 27357 ft | 437 kts | 174° |
| 2026-04-21 15:07 | 29.64093 | -82.12570 | 26901 ft | 434 kts | 174° |
| 2026-04-21 15:07 | 29.61160 | -82.11988 | 26465 ft | 431 kts | 174° |
| 2026-04-21 15:08 | 29.58215 | -82.11403 | 26031 ft | 427 kts | 174° |
| 2026-04-21 15:08 | 29.55293 | -82.10824 | 25604 ft | 424 kts | 174° |
| 2026-04-21 15:08 | 29.52391 | -82.10250 | 25193 ft | 421 kts | 174° |
| 2026-04-21 15:08 | 29.49509 | -82.09679 | 24773 ft | 418 kts | 174° |
| 2026-04-21 15:09 | 29.46644 | -82.09111 | 24371 ft | 416 kts | 174° |
| 2026-04-21 15:09 | 29.43804 | -82.08549 | 23979 ft | 413 kts | 174° |
| 2026-04-21 15:09 | 29.40966 | -82.07989 | 23527 ft | 410 kts | 174° |
| 2026-04-21 15:09 | 29.38156 | -82.07435 | 23053 ft | 407 kts | 173° |
| 2026-04-21 15:10 | 29.35409 | -82.06893 | 22623 ft | 405 kts | 173° |
| 2026-04-21 15:10 | 29.32643 | -82.06347 | 22186 ft | 402 kts | 173° |
| 2026-04-21 15:10 | 29.29919 | -82.05597 | 21743 ft | 402 kts | 159° |
| 2026-04-21 15:10 | 29.27435 | -82.04127 | 21204 ft | 402 kts | 152° |
| 2026-04-21 15:11 | 29.25020 | -82.02529 | 20709 ft | 401 kts | 152° |
| 2026-04-21 15:11 | 29.22599 | -82.00928 | 20247 ft | 400 kts | 152° |
| 2026-04-21 15:11 | 29.20213 | -81.99380 | 19851 ft | 397 kts | 152° |
| 2026-04-21 15:11 | 29.17800 | -81.97840 | 19451 ft | 394 kts | 152° |
| 2026-04-21 15:12 | 29.15406 | -81.96329 | 19060 ft | 392 kts | 153° |
| 2026-04-21 15:12 | 29.13022 | -81.94831 | 18660 ft | 389 kts | 153° |
| 2026-04-21 15:12 | 29.10653 | -81.93345 | 18206 ft | 387 kts | 152° |
| 2026-04-21 15:12 | 29.08299 | -81.91870 | 17800 ft | 384 kts | 152° |
| 2026-04-21 15:13 | 29.06051 | -81.90275 | 17384 ft | 378 kts | 141° |
| 2026-04-21 15:13 | 29.04141 | -81.88220 | 17024 ft | 375 kts | 134° |
| 2026-04-21 15:13 | 29.02302 | -81.86104 | 16638 ft | 372 kts | 135° |
| 2026-04-21 15:13 | 29.00451 | -81.84063 | 16270 ft | 369 kts | 136° |
| 2026-04-21 15:14 | 28.98609 | -81.82079 | 15908 ft | 367 kts | 136° |
| 2026-04-21 15:14 | 28.96863 | -81.79975 | 15544 ft | 363 kts | 128° |
| 2026-04-21 15:14 | 28.95327 | -81.77688 | 15183 ft | 360 kts | 125° |
| 2026-04-21 15:14 | 28.93857 | -81.75375 | 14824 ft | 358 kts | 124° |
| 2026-04-21 15:15 | 28.92387 | -81.73092 | 14421 ft | 357 kts | 125° |
| 2026-04-21 15:15 | 28.90876 | -81.70807 | 13790 ft | 363 kts | 126° |
| 2026-04-21 15:15 | 28.89341 | -81.68524 | 13347 ft | 361 kts | 126° |
| 2026-04-21 15:15 | 28.87836 | -81.66301 | 12930 ft | 347 kts | 126° |
| 2026-04-21 15:16 | 28.86381 | -81.64152 | 12569 ft | 339 kts | 126° |
| 2026-04-21 15:16 | 28.84966 | -81.62061 | 12250 ft | 337 kts | 126° |
| 2026-04-21 15:16 | 28.83538 | -81.59948 | 11978 ft | 332 kts | 126° |
| 2026-04-21 15:16 | 28.82144 | -81.57888 | 11839 ft | 324 kts | 126° |
| 2026-04-21 15:17 | 28.80784 | -81.55880 | 11690 ft | 316 kts | 126° |
| 2026-04-21 15:17 | 28.79338 | -81.54044 | 11482 ft | 308 kts | 141° |
| 2026-04-21 15:17 | 28.77511 | -81.52823 | 11209 ft | 303 kts | 152° |
| 2026-04-21 15:17 | 28.75631 | -81.51740 | 10908 ft | 302 kts | 152° |
| 2026-04-21 15:18 | 28.73768 | -81.50659 | 10610 ft | 301 kts | 152° |
| 2026-04-21 15:18 | 28.71923 | -81.49575 | 10308 ft | 300 kts | 152° |
| 2026-04-21 15:18 | 28.70089 | -81.48490 | 10166 ft | 293 kts | 151° |
| 2026-04-21 15:18 | 28.68299 | -81.47424 | 10000 ft | 286 kts | 151° |
| 2026-04-21 15:19 | 28.66541 | -81.46374 | 9688 ft | 285 kts | 150° |
| 2026-04-21 15:19 | 28.64789 | -81.45328 | 9403 ft | 283 kts | 150° |
| 2026-04-21 15:19 | 28.63049 | -81.44287 | 9117 ft | 282 kts | 150° |
| 2026-04-21 15:19 | 28.61329 | -81.43259 | 8945 ft | 275 kts | 150° |
| 2026-04-21 15:20 | 28.59557 | -81.42585 | 8774 ft | 264 kts | 172° |
| 2026-04-21 15:20 | 28.57766 | -81.42427 | 8691 ft | 253 kts | 173° |
| 2026-04-21 15:20 | 28.56029 | -81.42347 | 8419 ft | 253 kts | 178° |
| 2026-04-21 15:20 | 28.54274 | -81.42356 | 8170 ft | 253 kts | 178° |
| 2026-04-21 15:21 | 28.52509 | -81.42376 | 7892 ft | 254 kts | 178° |
| 2026-04-21 15:21 | 28.50736 | -81.42389 | 7594 ft | 254 kts | 177° |
| 2026-04-21 15:21 | 28.48962 | -81.42399 | 7298 ft | 254 kts | 176° |
| 2026-04-21 15:21 | 28.47194 | -81.42406 | 7015 ft | 254 kts | 176° |
| 2026-04-21 15:22 | 28.45417 | -81.42411 | 6720 ft | 255 kts | 176° |
| 2026-04-21 15:22 | 28.43645 | -81.42416 | 6406 ft | 255 kts | 175° |
| 2026-04-21 15:22 | 28.41878 | -81.42419 | 6095 ft | 256 kts | 175° |
| 2026-04-21 15:22 | 28.40090 | -81.42417 | 5804 ft | 256 kts | 175° |
| 2026-04-21 15:23 | 28.38306 | -81.42415 | 5508 ft | 257 kts | 174° |
| 2026-04-21 15:23 | 28.36539 | -81.42418 | 5294 ft | 255 kts | 174° |
| 2026-04-21 15:23 | 28.34765 | -81.42419 | 5043 ft | 253 kts | 173° |
| 2026-04-21 15:23 | 28.33040 | -81.42310 | 4900 ft | 244 kts | 169° |
| 2026-04-21 15:24 | 28.31412 | -81.42123 | 4627 ft | 242 kts | 167° |
| 2026-04-21 15:24 | 28.29737 | -81.41905 | 4354 ft | 241 kts | 168° |
| 2026-04-21 15:24 | 28.28087 | -81.41702 | 4191 ft | 236 kts | 169° |
| 2026-04-21 15:24 | 28.26454 | -81.41512 | 4031 ft | 233 kts | 168° |
| 2026-04-21 15:25 | 28.24860 | -81.41310 | 3910 ft | 228 kts | 168° |
| 2026-04-21 15:25 | 28.23305 | -81.41126 | 3902 ft | 224 kts | 168° |
| 2026-04-21 15:25 | 28.21880 | -81.40631 | 3855 ft | 212 kts | 135° |
| 2026-04-21 15:25 | 28.21120 | -81.39324 | 3815 ft | 195 kts | 98° |
| 2026-04-21 15:26 | 28.21095 | -81.37807 | 3729 ft | 194 kts | 81° |
| 2026-04-21 15:26 | 28.21489 | -81.36346 | 3579 ft | 194 kts | 62° |
| 2026-04-21 15:26 | 28.22228 | -81.35091 | 3526 ft | 190 kts | 57° |
| 2026-04-21 15:26 | 28.23005 | -81.33859 | 3354 ft | 188 kts | 56° |
| 2026-04-21 15:27 | 28.23751 | -81.32672 | 3270 ft | 183 kts | 56° |
| 2026-04-21 15:27 | 28.24496 | -81.31470 | 3156 ft | 188 kts | 56° |
| 2026-04-21 15:27 | 28.25309 | -81.30327 | 3061 ft | 185 kts | 39° |
| 2026-04-21 15:27 | 28.26542 | -81.29801 | 2882 ft | 196 kts | 14° |
| 2026-04-21 15:28 | 28.27883 | -81.29617 | 2640 ft | 197 kts | 12° |
| 2026-04-21 15:28 | 28.29255 | -81.29475 | 2348 ft | 197 kts | 9° |
| 2026-04-21 15:28 | 28.30623 | -81.29449 | 2090 ft | 195 kts | 5° |
| 2026-04-21 15:28 | 28.31981 | -81.29466 | 1839 ft | 195 kts | 6° |
| 2026-04-21 15:29 | 28.33299 | -81.29483 | 1643 ft | 185 kts | 6° |
| 2026-04-21 15:29 | 28.34539 | -81.29532 | 1377 ft | 177 kts | 5° |
| 2026-04-21 15:29 | 28.35749 | -81.29564 | 1107 ft | 168 kts | 6° |
| 2026-04-21 15:29 | 28.36890 | -81.29575 | 790 ft | 159 kts | 9° |
| 2026-04-21 15:30 | 28.37947 | -81.29542 | 660 ft | 146 kts | 9° |
| 2026-04-21 15:30 | 28.38943 | -81.29566 | 486 ft | 138 kts | 7° |
| 2026-04-21 15:30 | 28.39882 | -81.29564 | 301 ft | 139 kts | 6° |
| 2026-04-21 15:30 | 28.40835 | -81.29567 | 165 ft | 133 kts | 7° |
| 2026-04-21 15:31 | 28.41681 | -81.29576 | 111 ft | 110 kts | 1° |
| 2026-04-21 15:31 | 28.42320 | -81.29582 | 106 ft | 74 kts | 359° |
| 2026-04-21 15:31 | 28.42705 | -81.29583 | 107 ft | 35 kts | 356° |
| 2026-04-21 15:31 | 28.42850 | -81.29620 | 110 ft | 19 kts | 335° |
| 2026-04-21 15:32 | 28.42909 | -81.29730 | 109 ft | 17 kts | 273° |
| 2026-04-21 15:32 | 28.42822 | -81.29798 | 108 ft | 18 kts | 180° |
| 2026-04-21 15:32 | 28.42699 | -81.29797 | 108 ft | 18 kts | 178° |
| 2026-04-21 15:32 | 28.42575 | -81.29794 | 107 ft | 18 kts | 179° |
| 2026-04-21 15:33 | 28.42454 | -81.29792 | 107 ft | 18 kts | 179° |
| 2026-04-21 15:33 | 28.42364 | -81.29867 | 107 ft | 18 kts | 258° |
| 2026-04-21 15:33 | 28.42361 | -81.30007 | 108 ft | 18 kts | 269° |
| 2026-04-21 15:33 | 28.42359 | -81.30148 | 108 ft | 18 kts | 269° |
| 2026-04-21 15:34 | 28.42359 | -81.30294 | 108 ft | 19 kts | 270° |
| 2026-04-21 15:34 | 28.42352 | -81.30448 | 105 ft | 20 kts | 266° |
| 2026-04-21 15:34 | 28.42342 | -81.30606 | 108 ft | 20 kts | 266° |
| 2026-04-21 15:34 | 28.42331 | -81.30766 | 109 ft | 20 kts | 264° |
| 2026-04-21 15:35 | 28.42316 | -81.30962 | 97 ft | 24 kts | 268° |
| 2026-04-21 15:35 | 28.42321 | -81.31063 | 98 ft | 0 kts | 278° |
| 2026-04-21 15:36 | 28.42321 | -81.31064 | 98 ft | 0 kts | 278° |
| 2026-04-21 15:36 | 28.42326 | -81.31098 | 99 ft | 5 kts | 279° |
| 2026-04-21 15:37 | 28.42331 | -81.31131 | 101 ft | 0 kts | 280° |
| 2026-04-21 15:38 | 28.42338 | -81.31171 | 98 ft | 6 kts | 280° |
| 2026-04-21 15:38 | 28.42345 | -81.31223 | 101 ft | 9 kts | 277° |
| 2026-04-21 15:38 | 28.42367 | -81.31275 | 102 ft | 8 kts | 328° |
| 2026-04-21 15:38 | 28.42421 | -81.31289 | 103 ft | 8 kts | 337° |
| 2026-04-21 15:39 | 28.42465 | -81.31332 | 104 ft | 8 kts | 316° |
| 2026-04-21 15:39 | 28.42516 | -81.31376 | 107 ft | 9 kts | 338° |
| 2026-04-21 15:39 | 28.42573 | -81.31394 | 106 ft | 8 kts | 340° |
| 2026-04-21 15:39 | 28.42616 | -81.31425 | 106 ft | 0 kts | 322° |
| 2026-04-21 15:40 | 28.42618 | -81.31427 | 107 ft | 0 kts | 322° |
| 2026-04-21 15:41 | 28.42639 | -81.31446 | 106 ft | 0 kts | 323° |